createdAt,value
2023-08-02T00:00:25.754Z,15.61
2023-08-02T00:01:25.778Z,15.59
2023-08-02T00:02:27.712Z,15.61
2023-08-02T00:04:29.407Z,15.66
2023-08-02T00:05:25.685Z,15.66
2023-08-02T00:06:25.898Z,15.66
2023-08-02T00:07:25.908Z,15.63
2023-08-02T00:08:32.873Z,15.78
2023-08-02T00:09:33.776Z,15.78
2023-08-02T00:10:26.678Z,15.74
2023-08-02T00:11:25.643Z,15.72
2023-08-02T00:12:25.625Z,15.74
2023-08-02T00:13:25.690Z,15.74
2023-08-02T00:14:28.324Z,15.74
2023-08-02T00:15:25.600Z,15.72
2023-08-02T00:16:26.412Z,15.70
2023-08-02T00:17:39.654Z,15.72
2023-08-02T00:18:26.584Z,15.63
2023-08-02T00:19:25.631Z,15.70
2023-08-02T00:20:25.546Z,15.84
2023-08-02T00:21:25.564Z,15.67
2023-08-02T00:22:26.239Z,15.64
2023-08-02T00:23:25.515Z,15.72
2023-08-02T00:24:28.426Z,15.78
2023-08-02T00:25:29.966Z,15.72
2023-08-02T00:26:28.859Z,15.75
2023-08-02T00:27:25.528Z,15.66
2023-08-02T00:28:25.460Z,15.79
2023-08-02T00:29:25.470Z,15.76
2023-08-02T00:30:25.471Z,15.78
2023-08-02T00:31:28.319Z,15.82
2023-08-02T00:32:25.433Z,15.79
2023-08-02T00:33:25.425Z,15.88
2023-08-02T00:34:25.420Z,15.82
2023-08-02T00:35:25.410Z,15.88
2023-08-02T00:36:25.457Z,15.84
2023-08-02T00:37:25.383Z,15.84
2023-08-02T00:38:25.410Z,15.82
2023-08-02T00:39:25.397Z,15.92
2023-08-02T00:40:25.333Z,15.82
2023-08-02T00:41:25.327Z,15.82
2023-08-02T00:42:25.318Z,15.86
2023-08-02T00:43:25.313Z,15.81
2023-08-02T00:44:25.347Z,15.81
2023-08-02T00:45:25.304Z,15.89
2023-08-02T00:46:25.375Z,15.84
2023-08-02T00:47:25.472Z,15.78
2023-08-02T00:48:25.266Z,15.96
2023-08-02T00:49:25.299Z,15.82
2023-08-02T00:50:25.248Z,15.82
2023-08-02T00:51:25.329Z,15.93
2023-08-02T00:52:25.226Z,15.92
2023-08-02T00:53:25.308Z,15.82
2023-08-02T00:54:25.196Z,15.88
2023-08-02T00:55:25.193Z,15.86
2023-08-02T00:56:25.191Z,15.82
2023-08-02T00:57:25.164Z,15.86
2023-08-02T00:58:25.161Z,15.88
2023-08-02T00:59:25.173Z,15.85
2023-08-02T01:00:25.204Z,15.78
2023-08-02T01:01:25.150Z,15.84
2023-08-02T01:02:25.143Z,15.93
2023-08-02T01:03:25.149Z,15.86
2023-08-02T01:04:26.299Z,15.82
2023-08-02T01:05:26.332Z,15.79
2023-08-02T01:06:26.479Z,15.79
2023-08-02T01:07:27.283Z,15.84
2023-08-02T01:08:26.357Z,15.78
2023-08-02T01:09:27.238Z,15.93
2023-08-02T01:10:26.254Z,15.92
2023-08-02T01:11:26.217Z,15.84
2023-08-02T01:12:26.311Z,15.89
2023-08-02T01:13:26.230Z,15.86
2023-08-02T14:47:21.451Z,21.61
2023-08-02T14:47:52.954Z,21.60
2023-08-02T14:48:52.916Z,21.61
2023-08-02T14:49:52.896Z,21.57
2023-08-02T14:50:52.875Z,21.48
2023-08-02T14:51:52.871Z,21.44
2023-08-02T14:52:52.874Z,21.48
2023-08-02T14:54:03.728Z,21.48
2023-08-02T14:54:53.846Z,21.61
2023-08-02T14:55:52.829Z,21.54
2023-08-02T14:56:52.835Z,21.56
2023-08-02T14:57:52.817Z,21.56
2023-08-02T14:58:52.795Z,21.44
2023-08-02T14:59:52.793Z,21.45
2023-08-02T15:00:52.999Z,21.44
2023-08-02T15:01:52.872Z,21.41
2023-08-02T15:02:55.888Z,21.32
2023-08-02T15:03:53.741Z,21.27
2023-08-02T15:04:52.738Z,21.30
2023-08-02T15:05:52.733Z,21.29
2023-08-02T15:06:52.746Z,21.21
2023-08-02T15:07:52.695Z,21.17
2023-08-02T15:08:52.693Z,21.16
2023-08-02T15:09:52.680Z,21.20
2023-08-02T15:10:54.541Z,21.13
2023-08-02T15:11:52.669Z,21.14
2023-08-02T15:12:52.938Z,21.20
2023-08-02T15:13:52.639Z,21.21
2023-08-02T15:14:52.627Z,21.14
2023-08-02T15:15:52.644Z,21.17
2023-08-02T15:16:54.219Z,21.19
2023-08-02T15:17:52.642Z,21.27
2023-08-02T15:18:52.582Z,21.27
2023-08-02T15:19:52.579Z,21.23
2023-08-02T15:20:52.577Z,21.17
2023-08-02T15:21:52.566Z,21.19
2023-08-02T15:22:52.553Z,21.30
2023-08-02T15:23:52.564Z,21.16
2023-08-02T15:24:52.515Z,21.19
2023-08-02T15:25:52.513Z,21.24
2023-08-02T15:26:52.501Z,21.34
2023-08-02T15:27:52.481Z,21.24
2023-08-02T15:28:52.485Z,21.42
2023-08-02T15:29:52.507Z,21.44
2023-08-02T15:30:52.497Z,21.39
2023-08-02T15:31:52.438Z,21.39
2023-08-02T15:32:52.449Z,21.53
2023-08-02T15:33:52.427Z,21.81
2023-08-02T15:34:52.440Z,21.82
2023-08-02T15:35:52.401Z,21.69
2023-08-02T15:36:52.422Z,21.75
2023-08-02T15:37:52.375Z,21.63
2023-08-02T15:38:52.374Z,21.72
2023-08-02T15:39:52.365Z,21.69
2023-08-02T15:40:52.392Z,21.63
2023-08-02T15:41:52.337Z,21.54
2023-08-02T15:42:52.330Z,21.46
2023-08-02T15:43:52.324Z,21.53
2023-08-02T15:44:52.317Z,21.54
2023-08-02T15:45:52.289Z,21.60
2023-08-02T15:46:52.420Z,21.44
2023-08-02T15:47:52.305Z,21.35
2023-08-02T15:48:52.273Z,21.41
2023-08-02T15:49:52.248Z,21.36
2023-08-02T15:50:52.234Z,21.32
2023-08-02T15:51:52.226Z,21.53
2023-08-02T15:52:52.214Z,21.39
2023-08-02T15:53:52.233Z,21.42
2023-08-02T15:54:52.210Z,21.24
2023-08-02T15:55:52.206Z,21.32
2023-08-02T15:56:52.215Z,21.34
2023-08-02T15:57:52.158Z,21.23
2023-08-02T15:58:52.168Z,21.35
2023-08-02T15:59:52.139Z,21.23
2023-08-02T16:00:52.164Z,21.19
2023-08-02T16:01:52.123Z,21.21
2023-08-02T16:02:52.170Z,21.21
2023-08-02T16:03:52.118Z,21.20
2023-08-02T16:04:52.103Z,21.16
2023-08-02T16:05:52.119Z,21.29
2023-08-02T16:06:52.113Z,21.26
2023-08-02T16:07:52.090Z,21.24
2023-08-02T16:08:52.050Z,21.38
2023-08-02T16:09:52.035Z,21.44
2023-08-02T16:10:52.039Z,21.54
2023-08-02T16:11:52.016Z,21.61
2023-08-02T16:12:52.024Z,21.79
2023-08-02T16:13:52.041Z,21.98
2023-08-02T16:14:51.987Z,21.95
2023-08-02T16:15:51.980Z,22.09
2023-08-02T16:16:52.013Z,22.20
2023-08-02T16:17:51.994Z,22.17
2023-08-02T16:18:51.955Z,22.19
2023-08-02T16:19:51.976Z,22.25
2023-08-02T16:20:51.924Z,22.19
2023-08-02T16:21:51.931Z,22.27
2023-08-02T16:22:51.908Z,22.23
2023-08-02T16:23:51.894Z,22.28
2023-08-02T16:24:51.887Z,22.29
2023-08-02T16:25:51.881Z,22.27
2023-08-02T16:26:51.878Z,22.27
2023-08-02T16:27:51.841Z,22.20
2023-08-02T16:28:51.840Z,22.27
2023-08-02T16:29:51.830Z,22.38
2023-08-02T16:30:51.870Z,22.32
2023-08-02T16:31:51.865Z,22.47
2023-08-02T16:32:51.848Z,22.56
2023-08-02T16:33:51.789Z,22.27
2023-08-02T16:34:51.781Z,22.14
2023-08-02T16:35:51.792Z,22.06
2023-08-02T16:36:51.768Z,21.95
2023-08-02T16:37:51.746Z,21.79
2023-08-02T16:38:51.742Z,21.82
2023-08-02T16:39:51.731Z,21.92
2023-08-02T16:40:51.764Z,21.97
2023-08-02T16:41:51.709Z,21.85
2023-08-02T16:42:51.702Z,21.75
2023-08-02T16:43:51.697Z,21.79
2023-08-02T16:44:51.683Z,21.74
2023-08-02T16:45:51.677Z,21.88
2023-08-02T16:46:51.735Z,21.74
2023-08-02T16:47:51.728Z,21.82
2023-08-02T16:50:15.263Z,22.07
2023-08-02T16:50:53.470Z,21.90
2023-08-02T16:51:51.621Z,22.06
2023-08-02T17:18:26.529Z,21.05
2023-08-02T17:21:25.034Z,21.32
2023-08-02T17:22:12.659Z,21.36
2023-08-02T17:23:08.103Z,21.42
2023-08-02T17:31:32.739Z,21.14
2023-08-02T19:01:05.836Z,19.08
2023-08-02T19:01:31.940Z,19.14
2023-08-02T19:02:32.614Z,19.17
2023-08-02T19:04:13.020Z,19.20
2023-08-02T19:04:31.608Z,19.15
2023-08-02T19:05:31.599Z,19.18
2023-08-02T19:06:31.675Z,19.11
2023-08-02T19:07:31.629Z,19.14
2023-08-02T19:08:31.550Z,19.20
2023-08-02T19:09:31.570Z,19.17
2023-08-02T19:10:31.531Z,19.10
2023-08-02T19:11:31.531Z,19.21
2023-08-02T19:12:31.564Z,19.11
2023-08-02T19:13:31.494Z,19.20
2023-08-02T19:14:31.490Z,19.17
2023-08-02T19:15:31.499Z,19.17
2023-08-02T19:16:31.475Z,19.20
2023-08-02T19:17:31.515Z,19.24
2023-08-02T19:18:31.433Z,19.35
2023-08-02T19:19:31.436Z,19.35
2023-08-02T19:20:31.437Z,19.42
2023-08-02T19:21:31.440Z,19.32
2023-08-02T19:22:31.430Z,19.36
2023-08-02T19:23:31.385Z,19.39
2023-08-02T19:24:31.558Z,19.38
2023-08-02T19:25:31.549Z,19.29
2023-08-02T19:26:31.426Z,19.43
2023-08-02T19:27:31.402Z,19.39
2023-08-02T19:28:31.376Z,19.40
2023-08-02T19:29:31.439Z,19.40
2023-08-02T19:30:31.373Z,19.43
2023-08-02T19:31:31.472Z,19.47
2023-08-02T19:32:31.426Z,19.50
2023-08-02T21:33:14.795Z,18.10
